LavenderCAM.net
Leatherhead Weather
 
Leatherhead Weather
 
 





Aviation weather for

London Heathrow (EGLL) and London Gatwick (EGKK)



London Heathrow (EGLL) METAR / Surface Actual
London / Heathrow Airport, United Kingdom (EGLL) 51-29N 000-27W 0M
May 15, 2021 - 11:50 AM EDT / 2021.05.15 1550 UTC
Wind: from the W (280 degrees) at 7 MPH (6 KT) (direction variable):0
Visibility: greater than 7 mile(s):0
Sky conditions: mostly clear
Weather: thunder in the vicinity; Cumulonimbus clouds observed
Temperature: 57 F (14 C)
Dew Point: 48 F (9 C)
Relative Humidity: 71%
Pressure (altimeter): 29.47 in. Hg (0998 hPa)
ob: EGLL 151550Z AUTO 28006KT 240V310 9999 VCTS FEW028/// //////CB 14/09 Q0998
cycle: 16
London Heathrow (EGLL) TAF / Forecast
2021/05/15 12:09
TAF EGLL 151056Z 1512/1618 14005KT 9999 BKN012 
      BECMG 1512/1515 SCT035 PROB30 
      TEMPO 1512/1514 4000 -RADZ BKN009 
      TEMPO 1514/1521 6000 SHRA PROB30 
      TEMPO 1514/1518 3500 +TSRA 
      BECMG 1515/1517 24010KT PROB30 
      TEMPO 1603/1609 BKN010 
      TEMPO 1609/1618 5000 SHRA PROB30 
      TEMPO 1611/1618 3000 +TSRAGS


London Gatwick (EGKK) METAR / Surface Actual
London / Gatwick Airport, United Kingdom (EGKK) 51-09N 000-11W 0M
May 15, 2021 - 11:50 AM EDT / 2021.05.15 1550 UTC
Wind: from the WSW (240 degrees) at 12 MPH (10 KT):0
Visibility: greater than 7 mile(s):0
Sky conditions: mostly cloudy
Temperature: 57 F (14 C)
Dew Point: 48 F (9 C)
Relative Humidity: 71%
Pressure (altimeter): 29.50 in. Hg (0999 hPa)
ob: EGKK 151550Z 24010KT 9999 FEW015 BKN040 14/09 Q0999
cycle: 16
London Gatwick (EGKK) TAF / Forecast
2021/05/15 12:09
TAF EGKK 151053Z 1512/1618 10005KT 9999 BKN009 
      BECMG 1512/1514 SCT012 
      TEMPO 1512/1521 6000 SHRA PROB30 
      TEMPO 1512/1519 3000 +TSRAGS BKN010 BKN018CB 
      BECMG 1513/1516 25010KT 
      TEMPO 1606/1618 6000 SHRA BKN010 PROB30 
      TEMPO 1609/1618 4000 +TSRAGS